sensor_id;sensor_type;location;lat;lon;timestamp;pressure;altitude;pressure_sealevel;temperature;humidity
50123;BME280;36021;48.670;6.184;2023-04-08T00:02:19;99431.31;;;8.38;100.00
50123;BME280;36021;48.670;6.184;2023-04-08T00:04:45;99427.72;;;8.32;100.00
50123;BME280;36021;48.670;6.184;2023-04-08T00:07:11;99428.84;;;8.42;100.00
50123;BME280;36021;48.670;6.184;2023-04-08T00:09:37;99423.91;;;8.38;100.00
50123;BME280;36021;48.670;6.184;2023-04-08T00:12:05;99424.19;;;8.42;100.00
50123;BME280;36021;48.670;6.184;2023-04-08T00:14:30;99438.22;;;8.51;100.00
50123;BME280;36021;48.670;6.184;2023-04-08T00:16:56;99427.75;;;8.48;100.00
50123;BME280;36021;48.670;6.184;2023-04-08T00:19:22;99428.84;;;8.42;100.00
50123;BME280;36021;48.670;6.184;2023-04-08T00:21:47;99425.56;;;8.40;100.00
50123;BME280;36021;48.670;6.184;2023-04-08T00:24:13;99425.78;;;8.28;100.00
50123;BME280;36021;48.670;6.184;2023-04-08T00:26:39;99429.84;;;8.15;100.00
50123;BME280;36021;48.670;6.184;2023-04-08T00:29:05;99421.63;;;8.20;100.00
50123;BME280;36021;48.670;6.184;2023-04-08T00:31:32;99417.78;;;8.21;100.00
50123;BME280;36021;48.670;6.184;2023-04-08T00:33:57;99420.50;;;8.16;100.00
50123;BME280;36021;48.670;6.184;2023-04-08T00:36:23;99419.41;;;8.12;100.00
50123;BME280;36021;48.670;6.184;2023-04-08T00:38:51;99422.69;;;8.09;100.00
50123;BME280;36021;48.670;6.184;2023-04-08T00:41:17;99420.22;;;8.13;100.00
50123;BME280;36021;48.670;6.184;2023-04-08T00:43:43;99423.25;;;8.16;100.00
50123;BME280;36021;48.670;6.184;2023-04-08T00:46:10;99429.84;;;8.15;100.00
50123;BME280;36021;48.670;6.184;2023-04-08T00:48:35;99426.25;;;8.10;100.00
50123;BME280;36021;48.670;6.184;2023-04-08T00:51:04;99428.75;;;8.21;100.00
50123;BME280;36021;48.670;6.184;2023-04-08T00:53:30;99431.53;;;8.26;100.00
50123;BME280;36021;48.670;6.184;2023-04-08T00:55:56;99429.69;;;8.37;100.00
50123;BME280;36021;48.670;6.184;2023-04-08T00:58:24;99437.59;;;8.28;100.00
50123;BME280;36021;48.670;6.184;2023-04-08T01:04:06;99439.44;;;8.13;100.00
50123;BME280;36021;48.670;6.184;2023-04-08T01:06:56;99440.97;;;7.88;100.00
50123;BME280;36021;48.670;6.184;2023-04-08T01:09:27;99441.25;;;7.92;100.00
50123;BME280;36021;48.670;6.184;2023-04-08T01:11:55;99441.25;;;7.92;100.00
50123;BME280;36021;48.670;6.184;2023-04-08T01:14:23;99442.13;;;8.03;100.00
50123;BME280;36021;48.670;6.184;2023-04-08T01:16:55;99444.59;;;7.94;100.00
50123;BME280;36021;48.670;6.184;2023-04-08T01:19:28;99436.31;;;7.89;100.00
50123;BME280;36021;48.670;6.184;2023-04-08T01:22:01;99440.72;;;7.90;100.00
50123;BME280;36021;48.670;6.184;2023-04-08T01:24:35;99445.13;;;7.91;100.00
50123;BME280;36021;48.670;6.184;2023-04-08T01:27:04;99436.00;;;7.85;100.00
50123;BME280;36021;48.670;6.184;2023-04-08T01:29:33;99441.75;;;7.79;100.00
50123;BME280;36021;48.670;6.184;2023-04-08T01:32:00;99439.59;;;7.86;100.00
50123;BME280;36021;48.670;6.184;2023-04-08T01:34:27;99442.97;;;7.98;100.00
50123;BME280;36021;48.670;6.184;2023-04-08T01:36:56;99434.19;;;8.01;100.00
50123;BME280;36021;48.670;6.184;2023-04-08T01:39:23;99438.59;;;8.07;100.00
50123;BME280;36021;48.670;6.184;2023-04-08T01:41:52;99435.28;;;8.05;100.00
50123;BME280;36021;48.670;6.184;2023-04-08T01:44:19;99433.69;;;8.14;100.00
50123;BME280;36021;48.670;6.184;2023-04-08T01:46:47;99430.94;;;8.19;100.00
50123;BME280;36021;48.670;6.184;2023-04-08T01:49:15;99430.94;;;8.19;100.00
50123;BME280;36021;48.670;6.184;2023-04-08T01:51:42;99431.00;;;8.24;100.00
50123;BME280;36021;48.670;6.184;2023-04-08T01:54:09;99432.69;;;8.30;100.00
50123;BME280;36021;48.670;6.184;2023-04-08T01:56:37;99429.97;;;8.41;100.00
50123;BME280;36021;48.670;6.184;2023-04-08T01:59:09;99432.13;;;8.33;100.00
50123;BME280;36021;48.670;6.184;2023-04-08T02:01:36;99426.63;;;8.28;100.00
50123;BME280;36021;48.670;6.184;2023-04-08T02:04:02;99429.88;;;8.20;100.00
50123;BME280;36021;48.670;6.184;2023-04-08T02:06:30;99432.91;;;8.24;100.00
50123;BME280;36021;48.670;6.184;2023-04-08T02:08:58;99434.78;;;8.18;100.00
50123;BME280;36021;48.670;6.184;2023-04-08T02:11:24;99436.97;;;8.16;100.00
50123;BME280;36021;48.670;6.184;2023-04-08T02:13:50;99442.22;;;8.18;100.00
50123;BME280;36021;48.670;6.184;2023-04-08T02:16:30;99441.41;;;8.22;100.00
50123;BME280;36021;48.670;6.184;2023-04-08T02:19:03;99442.22;;;8.23;100.00
50123;BME280;36021;48.670;6.184;2023-04-08T02:21:35;99448.78;;;8.17;100.00
50123;BME280;36021;48.670;6.184;2023-04-08T02:24:04;99446.34;;;8.20;100.00
50123;BME280;36021;48.670;6.184;2023-04-08T02:26:35;99442.50;;;8.26;100.00
50123;BME280;36021;48.670;6.184;2023-04-08T02:29:01;99445.22;;;8.21;100.00
50123;BME280;36021;48.670;6.184;2023-04-08T02:31:29;99450.47;;;8.18;100.00
50123;BME280;36021;48.670;6.184;2023-04-08T02:33:55;99448.25;;;8.20;100.00
50123;BME280;36021;48.670;6.184;2023-04-08T02:36:22;99447.44;;;8.19;100.00
50123;BME280;36021;48.670;6.184;2023-04-08T02:38:48;99453.47;;;8.16;100.00
50123;BME280;36021;48.670;6.184;2023-04-08T02:41:16;99448.50;;;8.13;100.00
50123;BME280;36021;48.670;6.184;2023-04-08T02:43:42;99451.25;;;8.13;100.00
50123;BME280;36021;48.670;6.184;2023-04-08T02:46:08;99449.28;;;8.04;100.00
50123;BME280;36021;48.670;6.184;2023-04-08T02:48:36;99449.59;;;8.07;100.00
50123;BME280;36021;48.670;6.184;2023-04-08T02:51:01;99450.41;;;8.08;100.00
50123;BME280;36021;48.670;6.184;2023-04-08T02:53:27;99459.47;;;8.13;100.00
50123;BME280;36021;48.670;6.184;2023-04-08T02:55:53;99450.94;;;8.05;100.00
50123;BME280;36021;48.670;6.184;2023-04-08T02:58:19;99452.31;;;8.07;100.00
50123;BME280;36021;48.670;6.184;2023-04-08T03:00:44;99455.66;;;8.14;100.00
50123;BME280;36021;48.670;6.184;2023-04-08T03:03:10;99460.03;;;8.15;100.00
50123;BME280;36021;48.670;6.184;2023-04-08T03:05:36;99454.00;;;8.13;100.00
50123;BME280;36021;48.670;6.184;2023-04-08T03:08:02;99461.94;;;8.15;100.00
50123;BME280;36021;48.670;6.184;2023-04-08T03:10:27;99452.88;;;8.09;100.00
50123;BME280;36021;48.670;6.184;2023-04-08T03:12:53;99457.72;;;7.92;100.00
50123;BME280;36021;48.670;6.184;2023-04-08T03:15:19;99466.44;;;7.79;100.00
50123;BME280;36021;48.670;6.184;2023-04-08T03:17:44;99460.41;;;7.77;100.00
50123;BME280;36021;48.670;6.184;2023-04-08T03:20:10;99461.47;;;7.71;100.00
50123;BME280;36021;48.670;6.184;2023-04-08T03:22:36;99468.63;;;7.72;100.00
50123;BME280;36021;48.670;6.184;2023-04-08T03:25:01;99471.25;;;7.57;100.00
50123;BME280;36021;48.670;6.184;2023-04-08T03:27:28;99468.63;;;7.35;100.00
50123;BME280;36021;48.670;6.184;2023-04-08T03:29:54;99468.03;;;7.28;100.00
50123;BME280;36021;48.670;6.184;2023-04-08T03:32:22;99467.78;;;7.29;100.00
50123;BME280;36021;48.670;6.184;2023-04-08T03:34:48;99472.66;;;7.22;100.00
50123;BME280;36021;48.670;6.184;2023-04-08T03:37:16;99469.22;;;7.05;100.00
50123;BME280;36021;48.670;6.184;2023-04-08T03:39:42;99472.09;;;6.94;100.00
50123;BME280;36021;48.670;6.184;2023-04-08T03:42:08;99479.00;;;6.96;100.00
50123;BME280;36021;48.670;6.184;2023-04-08T03:44:35;99478.56;;;7.09;100.00
50123;BME280;36021;48.670;6.184;2023-04-08T03:47:01;99477.03;;;7.23;100.00
50123;BME280;36021;48.670;6.184;2023-04-08T03:49:26;99477.47;;;7.10;100.00
50123;BME280;36021;48.670;6.184;2023-04-08T03:51:54;99478.13;;;7.22;100.00
50123;BME280;36021;48.670;6.184;2023-04-08T03:54:20;99477.41;;;7.37;100.00
50123;BME280;36021;48.670;6.184;2023-04-08T03:56:48;99479.94;;;7.44;100.00
50123;BME280;36021;48.670;6.184;2023-04-08T03:59:14;99475.56;;;7.48;100.00
50123;BME280;36021;48.670;6.184;2023-04-08T04:01:41;99477.47;;;7.47;100.00
50123;BME280;36021;48.670;6.184;2023-04-08T04:04:06;99477.31;;;7.59;100.00
50123;BME280;36021;48.670;6.184;2023-04-08T04:06:33;99472.97;;;7.68;100.00
50123;BME280;36021;48.670;6.184;2023-04-08T04:08:59;99473.88;;;7.78;100.00
50123;BME280;36021;48.670;6.184;2023-04-08T04:11:25;99470.06;;;7.90;100.00
50123;BME280;36021;48.670;6.184;2023-04-08T04:13:51;99470.66;;;7.92;100.00
50123;BME280;36021;48.670;6.184;2023-04-08T04:16:17;99478.59;;;7.88;100.00
50123;BME280;36021;48.670;6.184;2023-04-08T04:18:42;99481.75;;;7.70;100.00
50123;BME280;36021;48.670;6.184;2023-04-08T04:21:08;99474.06;;;7.67;100.00
50123;BME280;36021;48.670;6.184;2023-04-08T04:23:34;99478.19;;;7.69;100.00
50123;BME280;36021;48.670;6.184;2023-04-08T04:26:00;99480.63;;;7.66;100.00
50123;BME280;36021;48.670;6.184;2023-04-08T04:28:26;99488.06;;;7.65;100.00
50123;BME280;36021;48.670;6.184;2023-04-08T04:30:53;99489.34;;;7.58;100.00
50123;BME280;36021;48.670;6.184;2023-04-08T04:33:19;99491.03;;;7.64;100.00
50123;BME280;36021;48.670;6.184;2023-04-08T04:35:44;99486.63;;;7.63;100.00
50123;BME280;36021;48.670;6.184;2023-04-08T04:38:10;99493.25;;;7.67;100.00
50123;BME280;36021;48.670;6.184;2023-04-08T04:40:37;99495.75;;;7.68;100.00
50123;BME280;36021;48.670;6.184;2023-04-08T04:43:04;99491.66;;;7.76;100.00
50123;BME280;36021;48.670;6.184;2023-04-08T04:45:30;99493.84;;;7.74;100.00
50123;BME280;36021;48.670;6.184;2023-04-08T04:47:56;99501.00;;;7.75;100.00
50123;BME280;36021;48.670;6.184;2023-04-08T04:50:24;99503.75;;;7.80;100.00
50123;BME280;36021;48.670;6.184;2023-04-08T04:52:49;99505.97;;;7.83;100.00
50123;BME280;36021;48.670;6.184;2023-04-08T04:55:16;99509.31;;;7.85;100.00
50123;BME280;36021;48.670;6.184;2023-04-08T04:57:43;99497.25;;;7.91;100.00
50123;BME280;36021;48.670;6.184;2023-04-08T05:00:09;99499.75;;;7.98;100.00
50123;BME280;36021;48.670;6.184;2023-04-08T05:02:35;99507.41;;;7.96;100.00
50123;BME280;36021;48.670;6.184;2023-04-08T05:05:00;99505.53;;;8.01;100.00
50123;BME280;36021;48.670;6.184;2023-04-08T05:07:26;99504.47;;;8.07;100.00
50123;BME280;36021;48.670;6.184;2023-04-08T05:09:53;99501.09;;;7.95;100.00
50123;BME280;36021;48.670;6.184;2023-04-08T05:12:19;99514.34;;;8.03;100.00
50123;BME280;36021;48.670;6.184;2023-04-08T05:14:46;99510.81;;;8.08;100.00
50123;BME280;36021;48.670;6.184;2023-04-08T05:17:12;99520.41;;;8.10;100.00
50123;BME280;36021;48.670;6.184;2023-04-08T05:19:37;99520.94;;;8.07;100.00
50123;BME280;36021;48.670;6.184;2023-04-08T05:22:03;99516.00;;;8.09;100.00
50123;BME280;36021;48.670;6.184;2023-04-08T05:24:29;99518.16;;;8.02;100.00
50123;BME280;36021;48.670;6.184;2023-04-08T05:26:54;99515.47;;;8.07;100.00
50123;BME280;36021;48.670;6.184;2023-04-08T05:29:23;99516.53;;;8.06;100.00
50123;BME280;36021;48.670;6.184;2023-04-08T05:31:49;99527.00;;;8.09;100.00
50123;BME280;36021;48.670;6.184;2023-04-08T05:34:14;99522.25;;;7.95;100.00
50123;BME280;36021;48.670;6.184;2023-04-08T05:36:43;99526.91;;;7.94;100.00
50123;BME280;36021;48.670;6.184;2023-04-08T05:39:09;99525.53;;;7.97;100.00
50123;BME280;36021;48.670;6.184;2023-04-08T05:41:34;99533.53;;;8.03;100.00
50123;BME280;36021;48.670;6.184;2023-04-08T05:44:02;99525.53;;;7.97;100.00
50123;BME280;36021;48.670;6.184;2023-04-08T05:46:28;99525.84;;;8.00;100.00
50123;BME280;36021;48.670;6.184;2023-04-08T05:48:54;99534.03;;;7.95;100.00
50123;BME280;36021;48.670;6.184;2023-04-08T05:51:19;99541.78;;;8.03;100.00
50123;BME280;36021;48.670;6.184;2023-04-08T05:53:46;99534.09;;;8.05;100.00
50123;BME280;36021;48.670;6.184;2023-04-08T05:56:12;99545.06;;;8.05;100.00
50123;BME280;36021;48.670;6.184;2023-04-08T05:58:39;99541.72;;;7.93;100.00
50123;BME280;36021;48.670;6.184;2023-04-08T06:01:04;99546.91;;;7.90;100.00
50123;BME280;36021;48.670;6.184;2023-04-08T06:03:31;99555.94;;;7.85;100.00
50123;BME280;36021;48.670;6.184;2023-04-08T06:05:57;99555.50;;;7.98;100.00
50123;BME280;36021;48.670;6.184;2023-04-08T06:08:23;99554.47;;;8.14;100.00
50123;BME280;36021;48.670;6.184;2023-04-08T06:10:50;99563.56;;;8.25;100.00
50123;BME280;36021;48.670;6.184;2023-04-08T06:13:16;99572.78;;;8.41;100.00
50123;BME280;36021;48.670;6.184;2023-04-08T06:15:42;99564.53;;;8.41;100.00
50123;BME280;36021;48.670;6.184;2023-04-08T06:18:08;99568.72;;;8.53;100.00
50123;BME280;36021;48.670;6.184;2023-04-08T06:20:34;99560.13;;;8.40;100.00
50123;BME280;36021;48.670;6.184;2023-04-08T06:23:00;99557.72;;;8.53;100.00
50123;BME280;36021;48.670;6.184;2023-04-08T06:25:26;99560.19;;;8.55;100.00
50123;BME280;36021;48.670;6.184;2023-04-08T06:27:52;99557.97;;;8.47;100.00
50123;BME280;36021;48.670;6.184;2023-04-08T06:30:18;99564.59;;;8.51;100.00
50123;BME280;36021;48.670;6.184;2023-04-08T06:32:45;99567.94;;;8.63;100.00
50123;BME280;36021;48.670;6.184;2023-04-08T06:35:12;99571.25;;;8.75;100.00
50123;BME280;36021;48.670;6.184;2023-04-08T06:37:37;99571.75;;;8.62;100.00
50123;BME280;36021;48.670;6.184;2023-04-08T06:40:05;99574.00;;;8.70;100.00
50123;BME280;36021;48.670;6.184;2023-04-08T06:42:31;99577.34;;;8.82;100.00
50123;BME280;36021;48.670;6.184;2023-04-08T06:45:14;99580.91;;;8.87;100.00
50123;BME280;36021;48.670;6.184;2023-04-08T06:47:39;99574.03;;;8.80;100.00
50123;BME280;36021;48.670;6.184;2023-04-08T06:50:05;99577.00;;;8.68;100.00
50123;BME280;36021;48.670;6.184;2023-04-08T06:52:32;99582.78;;;8.72;100.00
50123;BME280;36021;48.670;6.184;2023-04-08T06:54:58;99571.56;;;8.83;100.00
50123;BME280;36021;48.670;6.184;2023-04-08T06:57:25;99576.81;;;8.95;100.00
50123;BME280;36021;48.670;6.184;2023-04-08T06:59:52;99569.66;;;8.94;100.00
50123;BME280;36021;48.670;6.184;2023-04-08T07:02:18;99580.13;;;8.97;100.00
50123;BME280;36021;48.670;6.184;2023-04-08T07:04:43;99578.47;;;8.91;100.00
50123;BME280;36021;48.670;6.184;2023-04-08T07:07:10;99575.75;;;8.96;100.00
50123;BME280;36021;48.670;6.184;2023-04-08T07:09:35;99582.31;;;9.00;100.00
50123;BME280;36021;48.670;6.184;2023-04-08T07:12:03;99588.38;;;8.97;100.00
50123;BME280;36021;48.670;6.184;2023-04-08T07:14:29;99588.94;;;8.99;100.00
50123;BME280;36021;48.670;6.184;2023-04-08T07:16:56;99593.88;;;8.97;100.00
50123;BME280;36021;48.670;6.184;2023-04-08T07:19:22;99591.44;;;9.11;100.00
50123;BME280;36021;48.670;6.184;2023-04-08T07:21:49;99592.81;;;9.08;100.00
50123;BME280;36021;48.670;6.184;2023-04-08T07:24:14;99596.66;;;9.07;100.00
50123;BME280;36021;48.670;6.184;2023-04-08T07:26:40;99591.44;;;9.11;100.00
50123;BME280;36021;48.670;6.184;2023-04-08T07:29:06;99595.00;;;9.11;100.00
50123;BME280;36021;48.670;6.184;2023-04-08T07:31:32;99594.25;;;9.26;100.00
50123;BME280;36021;48.670;6.184;2023-04-08T07:33:58;99589.56;;;9.31;100.00
50123;BME280;36021;48.670;6.184;2023-04-08T07:36:23;99584.91;;;9.47;100.00
50123;BME280;36021;48.670;6.184;2023-04-08T07:38:49;99588.19;;;9.49;100.00
50123;BME280;36021;48.670;6.184;2023-04-08T07:41:16;99597.84;;;9.67;100.00
50123;BME280;36021;48.670;6.184;2023-04-08T07:43:42;99587.09;;;9.75;100.00
50123;BME280;36021;48.670;6.184;2023-04-08T07:46:09;99589.03;;;9.90;100.00
50123;BME280;36021;48.670;6.184;2023-04-08T07:48:35;99598.09;;;9.95;100.00
50123;BME280;36021;48.670;6.184;2023-04-08T07:51:07;99591.22;;;9.98;100.00
50123;BME280;36021;48.670;6.184;2023-04-08T07:53:32;99599.75;;;10.07;100.00
50123;BME280;36021;48.670;6.184;2023-04-08T07:55:59;99596.72;;;10.08;100.00
50123;BME280;36021;48.670;6.184;2023-04-08T07:58:25;99596.47;;;10.20;100.00
50123;BME280;36021;48.670;6.184;2023-04-08T08:00:51;99582.66;;;10.25;100.00
50123;BME280;36021;48.670;6.184;2023-04-08T08:03:17;99592.59;;;10.26;100.00
50123;BME280;36021;48.670;6.184;2023-04-08T08:05:43;99598.63;;;10.38;100.00
50123;BME280;36021;48.670;6.184;2023-04-08T08:08:08;99595.53;;;10.60;100.00
50123;BME280;36021;48.670;6.184;2023-04-08T08:10:39;99605.38;;;10.81;100.00
50123;BME280;36021;48.670;6.184;2023-04-08T08:13:05;99614.41;;;10.96;100.00
50123;BME280;36021;48.670;6.184;2023-04-08T08:15:32;99610.53;;;10.97;100.00
50123;BME280;36021;48.670;6.184;2023-04-08T08:17:58;99617.66;;;11.09;100.00
50123;BME280;36021;48.670;6.184;2023-04-08T08:20:24;99606.84;;;11.17;100.00
50123;BME280;36021;48.670;6.184;2023-04-08T08:22:50;99610.91;;;11.35;100.00
50123;BME280;36021;48.670;6.184;2023-04-08T08:25:16;99607.97;;;11.55;100.00
50123;BME280;36021;48.670;6.184;2023-04-08T08:27:42;99601.59;;;11.60;100.00
50123;BME280;36021;48.670;6.184;2023-04-08T08:30:10;99610.91;;;11.69;100.00
50123;BME280;36021;48.670;6.184;2023-04-08T08:32:36;99607.84;;;11.80;100.00
50123;BME280;36021;48.670;6.184;2023-04-08T08:35:02;99608.00;;;11.94;100.00
50123;BME280;36021;48.670;6.184;2023-04-08T08:37:28;99605.44;;;12.02;100.00
50123;BME280;36021;48.670;6.184;2023-04-08T08:39:55;99614.88;;;11.96;100.00
50123;BME280;36021;48.670;6.184;2023-04-08T08:42:22;99616.72;;;12.06;100.00
50123;BME280;36021;48.670;6.184;2023-04-08T08:44:49;99617.13;;;12.23;100.00
50123;BME280;36021;48.670;6.184;2023-04-08T08:47:16;99611.00;;;12.55;100.00
50123;BME280;36021;48.670;6.184;2023-04-08T08:49:43;99614.63;;;12.74;100.00
50123;BME280;36021;48.670;6.184;2023-04-08T08:52:09;99614.59;;;12.56;100.00
50123;BME280;36021;48.670;6.184;2023-04-08T08:54:37;99621.81;;;12.75;100.00
50123;BME280;36021;48.670;6.184;2023-04-08T08:57:03;99616.81;;;13.01;100.00
50123;BME280;36021;48.670;6.184;2023-04-08T08:59:30;99625.31;;;12.86;100.00
50123;BME280;36021;48.670;6.184;2023-04-08T09:01:56;99621.75;;;12.80;100.00
50123;BME280;36021;48.670;6.184;2023-04-08T09:04:22;99614.13;;;12.72;100.00
50123;BME280;36021;48.670;6.184;2023-04-08T09:06:49;99617.88;;;12.58;100.00
50123;BME280;36021;48.670;6.184;2023-04-08T09:09:16;99615.69;;;12.54;100.00
50123;BME280;36021;48.670;6.184;2023-04-08T09:11:45;99620.47;;;12.73;100.00
50123;BME280;36021;48.670;6.184;2023-04-08T09:14:17;99619.78;;;12.86;100.00
50123;BME280;36021;48.670;6.184;2023-04-08T09:16:44;99610.19;;;12.97;100.00
50123;BME280;36021;48.670;6.184;2023-04-08T09:19:11;99613.22;;;13.24;100.00
50123;BME280;36021;48.670;6.184;2023-04-08T09:21:37;99617.84;;;13.29;100.00
50123;BME280;36021;48.670;6.184;2023-04-08T09:24:03;99617.44;;;13.17;100.00
50123;BME280;36021;48.670;6.184;2023-04-08T09:26:28;99617.75;;;13.15;100.00
50123;BME280;36021;48.670;6.184;2023-04-08T09:29:04;99623.72;;;13.22;100.00
50123;BME280;36021;48.670;6.184;2023-04-08T09:31:35;99620.69;;;13.42;100.00
50123;BME280;36021;48.670;6.184;2023-04-08T09:34:12;99616.72;;;13.48;100.00
50123;BME280;36021;48.670;6.184;2023-04-08T09:36:39;99621.09;;;13.54;100.00
50123;BME280;36021;48.670;6.184;2023-04-08T09:39:05;99622.41;;;13.76;100.00
50123;BME280;36021;48.670;6.184;2023-04-08T09:41:36;99621.53;;;13.94;100.00
50123;BME280;36021;48.670;6.184;2023-04-08T09:44:08;99613.00;;;14.41;100.00
50123;BME280;36021;48.670;6.184;2023-04-08T09:46:53;99609.44;;;14.82;100.00
50123;BME280;36021;48.670;6.184;2023-04-08T09:52:12;99620.00;;;14.80;100.00
50123;BME280;36021;48.670;6.184;2023-04-08T09:55:07;99617.88;;;15.04;100.00
50123;BME280;36021;48.670;6.184;2023-04-08T09:57:52;99611.56;;;15.12;100.00
50123;BME280;36021;48.670;6.184;2023-04-08T10:00:23;99618.44;;;15.28;100.00
50123;BME280;36021;48.670;6.184;2023-04-08T10:05:47;99612.75;;;15.60;100.00
50123;BME280;36021;48.670;6.184;2023-04-08T10:08:15;99625.09;;;15.54;100.00
50123;BME280;36021;48.670;6.184;2023-04-08T10:10:41;99617.72;;;15.36;100.00
50123;BME280;36021;48.670;6.184;2023-04-08T10:13:08;99618.00;;;15.84;100.00
50123;BME280;36021;48.670;6.184;2023-04-08T10:15:34;99620.25;;;15.96;100.00
50123;BME280;36021;48.670;6.184;2023-04-08T10:23:13;99626.81;;;16.22;100.00
50123;BME280;36021;48.670;6.184;2023-04-08T10:25:40;99616.81;;;16.21;100.00
50123;BME280;36021;48.670;6.184;2023-04-08T10:30:46;99621.44;;;16.26;100.00
50123;BME280;36021;48.670;6.184;2023-04-08T10:33:30;99619.06;;;15.75;100.00
50123;BME280;36021;48.670;6.184;2023-04-08T10:36:08;99613.47;;;15.88;100.00
50123;BME280;36021;48.670;6.184;2023-04-08T10:38:34;99614.91;;;16.08;100.00
50123;BME280;36021;48.670;6.184;2023-04-08T10:41:00;99619.41;;;15.95;100.00
50123;BME280;36021;48.670;6.184;2023-04-08T10:43:34;99616.28;;;15.97;100.00
50123;BME280;36021;48.670;6.184;2023-04-08T10:46:00;99614.28;;;15.89;100.00
50123;BME280;36021;48.670;6.184;2023-04-08T10:48:25;99611.69;;;15.92;100.00
50123;BME280;36021;48.670;6.184;2023-04-08T10:51:02;99611.13;;;16.04;100.00
50123;BME280;36021;48.670;6.184;2023-04-08T10:53:33;99617.06;;;16.11;100.00
50123;BME280;36021;48.670;6.184;2023-04-08T10:58:31;99611.22;;;16.43;100.00
50123;BME280;36021;48.670;6.184;2023-04-08T11:01:04;99605.13;;;16.33;100.00
50123;BME280;36021;48.670;6.184;2023-04-08T11:03:32;99611.34;;;16.38;100.00
50123;BME280;36021;48.670;6.184;2023-04-08T11:06:00;99607.78;;;16.69;100.00
50123;BME280;36021;48.670;6.184;2023-04-08T11:08:31;99612.63;;;16.94;100.00
50123;BME280;36021;48.670;6.184;2023-04-08T11:10:58;99617.00;;;16.78;100.00
50123;BME280;36021;48.670;6.184;2023-04-08T11:13:27;99603.94;;;16.56;100.00
50123;BME280;36021;48.670;6.184;2023-04-08T11:15:54;99610.09;;;16.75;100.00
50123;BME280;36021;48.670;6.184;2023-04-08T11:18:22;99603.81;;;16.61;100.00
50123;BME280;36021;48.670;6.184;2023-04-08T11:20:51;99605.28;;;16.58;100.00
50123;BME280;36021;48.670;6.184;2023-04-08T11:23:17;99611.78;;;16.85;100.00
50123;BME280;36021;48.670;6.184;2023-04-08T11:25:44;99606.47;;;17.14;100.00
50123;BME280;36021;48.670;6.184;2023-04-08T11:28:11;99606.72;;;17.60;100.00
50123;BME280;36021;48.670;6.184;2023-04-08T11:30:39;99608.53;;;17.56;100.00
50123;BME280;36021;48.670;6.184;2023-04-08T11:33:06;99611.09;;;17.27;100.00
50123;BME280;36021;48.670;6.184;2023-04-08T11:35:32;99599.97;;;18.13;100.00
50123;BME280;36021;48.670;6.184;2023-04-08T11:37:58;99607.03;;;18.10;100.00
50123;BME280;36021;48.670;6.184;2023-04-08T11:40:23;99602.00;;;17.69;100.00
50123;BME280;36021;48.670;6.184;2023-04-08T11:42:52;99603.03;;;17.26;100.00
50123;BME280;36021;48.670;6.184;2023-04-08T11:45:19;99595.97;;;17.11;100.00
50123;BME280;36021;48.670;6.184;2023-04-08T11:47:48;99596.91;;;17.72;100.00
50123;BME280;36021;48.670;6.184;2023-04-08T11:50:25;99593.50;;;18.47;100.00
50123;BME280;36021;48.670;6.184;2023-04-08T11:52:51;99590.34;;;18.74;100.00
50123;BME280;36021;48.670;6.184;2023-04-08T11:55:24;99589.72;;;19.27;100.00
50123;BME280;36021;48.670;6.184;2023-04-08T11:57:53;99585.81;;;20.44;100.00
50123;BME280;36021;48.670;6.184;2023-04-08T12:00:21;99582.47;;;21.47;99.36
50123;BME280;36021;48.670;6.184;2023-04-08T12:02:50;99580.38;;;22.99;85.12
50123;BME280;36021;48.670;6.184;2023-04-08T12:05:16;99575.69;;;23.38;76.90
50123;BME280;36021;48.670;6.184;2023-04-08T12:07:42;99576.09;;;23.90;76.67
50123;BME280;36021;48.670;6.184;2023-04-08T12:10:10;99577.81;;;23.25;75.86
50123;BME280;36021;48.670;6.184;2023-04-08T12:12:36;99576.75;;;24.03;67.70
50123;BME280;36021;48.670;6.184;2023-04-08T12:15:03;99567.81;;;25.53;61.02
50123;BME280;36021;48.670;6.184;2023-04-08T12:17:30;99574.75;;;26.88;49.94
50123;BME280;36021;48.670;6.184;2023-04-08T12:19:56;99571.59;;;26.97;48.80
50123;BME280;36021;48.670;6.184;2023-04-08T12:22:22;99563.22;;;29.69;40.93
50123;BME280;36021;48.670;6.184;2023-04-08T12:24:48;99564.56;;;30.47;41.94
50123;BME280;36021;48.670;6.184;2023-04-08T12:27:14;99564.06;;;29.59;39.71
50123;BME280;36021;48.670;6.184;2023-04-08T12:29:39;99562.97;;;27.95;47.57
50123;BME280;36021;48.670;6.184;2023-04-08T12:32:05;99571.63;;;26.64;45.95
50123;BME280;36021;48.670;6.184;2023-04-08T12:34:31;99566.75;;;24.85;62.08
50123;BME280;36021;48.670;6.184;2023-04-08T12:36:57;99563.81;;;23.44;69.27
50123;BME280;36021;48.670;6.184;2023-04-08T12:39:23;99573.81;;;22.04;89.09
50123;BME280;36021;48.670;6.184;2023-04-08T12:41:49;99572.88;;;20.75;97.41
50123;BME280;36021;48.670;6.184;2023-04-08T12:44:16;99566.81;;;20.61;100.00
50123;BME280;36021;48.670;6.184;2023-04-08T12:46:41;99567.81;;;19.58;100.00
50123;BME280;36021;48.670;6.184;2023-04-08T12:49:07;99568.44;;;19.35;100.00
50123;BME280;36021;48.670;6.184;2023-04-08T12:51:34;99565.22;;;18.95;100.00
50123;BME280;36021;48.670;6.184;2023-04-08T12:54:01;99564.16;;;18.87;100.00
50123;BME280;36021;48.670;6.184;2023-04-08T12:56:30;99564.28;;;20.03;100.00
50123;BME280;36021;48.670;6.184;2023-04-08T12:58:58;99562.59;;;22.20;89.58
50123;BME280;36021;48.670;6.184;2023-04-08T13:01:25;99559.22;;;24.51;66.74
50123;BME280;36021;48.670;6.184;2023-04-08T13:03:51;99552.44;;;24.98;60.70
50123;BME280;36021;48.670;6.184;2023-04-08T13:06:18;99547.88;;;24.48;62.32
50123;BME280;36021;48.670;6.184;2023-04-08T13:08:44;99546.97;;;25.08;57.47
50123;BME280;36021;48.670;6.184;2023-04-08T13:11:12;99546.09;;;25.04;53.63
50123;BME280;36021;48.670;6.184;2023-04-08T13:13:37;99549.09;;;24.69;60.35
50123;BME280;36021;48.670;6.184;2023-04-08T13:16:04;99550.28;;;24.68;59.86
50123;BME280;36021;48.670;6.184;2023-04-08T13:18:29;99548.97;;;23.63;65.41